Time;durP1;ratioP1;P1;durP2;ratioP2;P2;SDS_P1;SDS_P2;PMS_P1;PMS_P2;Temp;Humidity;BMP_temperature;BMP_pressure;BME280_temperature;BME280_humidity;BME280_pressure;Samples;Min_cycle;Max_cycle;Signal;HPM_P1;HPM_P2
2022/12/10 00:01:10;;;;;;;59.28;21.10;;;;;;;;;;6335190;27;20052;-66
2022/12/10 00:04:12;;;;;;;59.50;22.30;;;;;;;;;;6333660;27;20170;-65
2022/12/10 00:07:12;;;;;;;69.93;27.27;;;;;;;;;;6319833;27;20067;-66
2022/12/10 00:10:13;;;;;;;81.15;29.55;;;;;;;;;;6321536;28;20549;-66
2022/12/10 00:13:13;;;;;;;74.45;27.98;;;;;;;;;;6332607;28;20043;-63
2022/12/10 00:16:16;;;;;;;72.47;28.17;;;;;;;;;;6327699;28;20094;-68
2022/12/10 00:19:17;;;;;;;76.30;27.50;;;;;;;;;;6329341;28;20375;-64
2022/12/10 00:22:17;;;;;;;81.40;29.75;;;;;;;;;;6330281;28;20113;-64
2022/12/10 00:25:18;;;;;;;75.05;27.48;;;;;;;;;;6324662;28;20739;-62
2022/12/10 00:28:18;;;;;;;73.80;26.42;;;;;;;;;;6317329;28;20058;-67
2022/12/10 00:31:25;;;;;;;79.85;27.83;;;;;;;;;;6319372;28;20048;-66
2022/12/10 00:34:26;;;;;;;80.43;28.38;;;;;;;;;;6318362;28;20131;-63
2022/12/10 00:37:26;;;;;;;79.53;28.35;;;;;;;;;;6316778;28;20058;-65
2022/12/10 00:40:27;;;;;;;71.70;27.10;;;;;;;;;;6317872;28;20131;-63
2022/12/10 00:43:28;;;;;;;63.85;24.08;;;;;;;;;;6325934;27;20126;-62
2022/12/10 00:46:29;;;;;;;65.25;22.65;;;;;;;;;;6332169;27;20075;-65
2022/12/10 00:49:29;;;;;;;81.30;29.25;;;;;;;;;;6342260;27;20448;-62
2022/12/10 00:52:30;;;;;;;67.75;24.77;;;;;;;;;;6339003;27;20050;-61
2022/12/10 00:55:30;;;;;;;61.03;21.98;;;;;;;;;;6346203;27;20408;-62
2022/12/10 00:58:35;;;;;;;72.18;26.65;;;;;;;;;;6329865;27;20044;-62
2022/12/10 01:01:41;;;;;;;62.22;23.95;;;;;;;;;;6338684;27;20523;-62
2022/12/10 01:04:42;;;;;;;73.68;26.42;;;;;;;;;;6339533;28;20044;-62
2022/12/10 01:07:42;;;;;;;61.83;24.25;;;;;;;;;;6340192;27;20402;-63
2022/12/10 01:10:45;;;;;;;65.35;23.02;;;;;;;;;;6339326;27;20531;-62
2022/12/10 01:13:46;;;;;;;59.20;21.95;;;;;;;;;;6336716;27;20494;-63
2022/12/10 01:16:48;;;;;;;56.70;22.13;;;;;;;;;;6331715;28;20138;-67
2022/12/10 01:19:49;;;;;;;56.08;20.23;;;;;;;;;;6338156;28;20054;-62
2022/12/10 01:22:49;;;;;;;61.13;21.17;;;;;;;;;;6335316;28;20071;-64
2022/12/10 01:25:50;;;;;;;63.75;21.88;;;;;;;;;;6335623;28;20117;-62
2022/12/10 01:28:51;;;;;;;54.95;20.35;;;;;;;;;;6333074;28;20576;-62
2022/12/10 01:31:53;;;;;;;59.30;20.90;;;;;;;;;;6332207;28;20044;-63
2022/12/10 01:34:54;;;;;;;53.13;20.20;;;;;;;;;;6323013;28;20054;-62
2022/12/10 01:37:55;;;;;;;56.75;19.92;;;;;;;;;;6321210;28;20048;-65
2022/12/10 01:40:55;;;;;;;63.05;22.55;;;;;;;;;;6324465;27;20043;-62
2022/12/10 01:44:09;;;;;;;52.38;22.00;;;;;;;;;;6337252;27;20052;-66
2022/12/10 01:47:10;;;;;;;65.05;22.90;;;;;;;;;;6325663;27;20043;-68
2022/12/10 01:50:11;;;;;;;62.37;24.20;;;;;;;;;;6323035;28;20052;-63
2022/12/10 01:53:13;;;;;;;65.03;24.45;;;;;;;;;;6330820;28;20135;-62
2022/12/10 01:56:17;;;;;;;65.23;22.10;;;;;;;;;;6321449;28;20421;-62
2022/12/10 01:59:18;;;;;;;62.05;22.38;;;;;;;;;;6320306;28;20305;-69
2022/12/10 02:02:42;;;;;;;62.03;23.40;;;;;;;;;;6322773;28;20055;-67
2022/12/10 02:06:09;;;;;;;59.75;21.80;;;;;;;;;;6339093;28;20048;-64
2022/12/10 02:09:24;;;;;;;58.15;23.08;;;;;;;;;;6341341;28;20405;-67
2022/12/10 02:12:57;;;;;;;61.10;21.83;;;;;;;;;;6345147;28;20532;-63
2022/12/10 02:16:07;;;;;;;63.90;24.70;;;;;;;;;;6341549;27;20089;-61
2022/12/10 02:19:43;;;;;;;67.18;24.75;;;;;;;;;;6333141;27;20040;-64
2022/12/10 02:22:49;;;;;;;85.40;27.20;;;;;;;;;;6282198;27;20135;-64
2022/12/10 02:26:10;;;;;;;69.18;25.05;;;;;;;;;;6323620;27;20392;-67
2022/12/10 02:29:14;;;;;;;74.35;26.48;;;;;;;;;;6323631;27;20074;-64
2022/12/10 02:32:20;;;;;;;72.43;24.40;;;;;;;;;;6338185;27;20051;-62
2022/12/10 02:35:26;;;;;;;58.97;21.67;;;;;;;;;;6325181;27;20047;-62
2022/12/10 02:38:30;;;;;;;58.08;20.50;;;;;;;;;;6319271;27;20043;-67
2022/12/10 02:41:36;;;;;;;58.15;19.90;;;;;;;;;;6326540;27;20471;-61
2022/12/10 02:44:40;;;;;;;57.10;21.13;;;;;;;;;;6326686;27;20108;-62
2022/12/10 02:47:41;;;;;;;57.42;20.67;;;;;;;;;;6331306;27;20054;-67
2022/12/10 02:50:42;;;;;;;60.50;21.87;;;;;;;;;;6324914;27;20279;-62
2022/12/10 02:53:44;;;;;;;55.40;20.90;;;;;;;;;;6321617;28;20782;-62
2022/12/10 02:56:53;;;;;;;54.58;19.83;;;;;;;;;;6323381;27;20051;-62
2022/12/10 03:00:04;;;;;;;51.40;19.85;;;;;;;;;;6319392;28;20050;-62
2022/12/10 03:03:23;;;;;;;53.50;19.30;;;;;;;;;;6325598;27;20100;-64
2022/12/10 03:06:39;;;;;;;48.80;19.00;;;;;;;;;;6326615;27;20054;-62
2022/12/10 03:09:47;;;;;;;56.53;20.92;;;;;;;;;;6322418;27;20051;-63
2022/12/10 03:12:54;;;;;;;53.80;21.50;;;;;;;;;;6319777;28;20048;-62
2022/12/10 03:15:55;;;;;;;55.97;20.95;;;;;;;;;;6326578;27;20095;-62
2022/12/10 03:19:00;;;;;;;57.85;22.50;;;;;;;;;;6320934;27;20482;-63
2022/12/10 03:22:04;;;;;;;49.08;20.27;;;;;;;;;;6318207;28;20386;-67
2022/12/10 03:25:07;;;;;;;61.35;22.30;;;;;;;;;;6322752;27;20127;-62
2022/12/10 03:28:08;;;;;;;66.88;24.27;;;;;;;;;;6321038;27;20074;-62
2022/12/10 03:31:10;;;;;;;50.38;19.90;;;;;;;;;;6321824;27;20051;-63
2022/12/10 03:34:11;;;;;;;47.83;17.73;;;;;;;;;;6320647;27;20044;-63
2022/12/10 03:37:13;;;;;;;56.25;19.25;;;;;;;;;;6322855;27;20051;-62
2022/12/10 03:40:14;;;;;;;50.55;16.95;;;;;;;;;;6326570;27;20050;-62
2022/12/10 03:43:15;;;;;;;53.42;20.00;;;;;;;;;;6330615;27;22278;-62
2022/12/10 03:46:15;;;;;;;62.25;22.88;;;;;;;;;;6334160;27;20050;-62
2022/12/10 03:49:16;;;;;;;60.13;22.52;;;;;;;;;;6330252;27;20054;-62
2022/12/10 03:52:17;;;;;;;54.13;20.30;;;;;;;;;;6327173;27;20090;-68
2022/12/10 03:55:17;;;;;;;60.45;20.52;;;;;;;;;;6322803;27;20093;-67
2022/12/10 03:58:18;;;;;;;64.75;24.73;;;;;;;;;;6322071;27;20042;-62
2022/12/10 04:01:18;;;;;;;58.55;23.35;;;;;;;;;;6322001;27;20055;-65
2022/12/10 04:04:19;;;;;;;66.00;23.83;;;;;;;;;;6329326;27;20050;-62
2022/12/10 04:07:20;;;;;;;69.40;23.75;;;;;;;;;;6320139;27;20562;-62
2022/12/10 04:10:20;;;;;;;63.35;20.92;;;;;;;;;;6319889;28;20044;-62
2022/12/10 04:16:40;;;;;;;54.63;20.70;;;;;;;;;;6326755;27;20500;-65
2022/12/10 04:19:42;;;;;;;52.85;20.67;;;;;;;;;;6323959;27;20047;-62
2022/12/10 04:29:26;;;;;;;59.13;19.83;;;;;;;;;;6325110;28;20052;-62
2022/12/10 04:32:29;;;;;;;58.97;19.73;;;;;;;;;;6324663;27;20052;-66
2022/12/10 04:35:29;;;;;;;;;;;;;;;;;;6321872;27;20046;-67
2022/12/10 04:38:30;;;;;;;47.20;18.25;;;;;;;;;;6318464;27;21093;-63
2022/12/10 04:41:30;;;;;;;57.83;20.77;;;;;;;;;;6320000;27;20125;-62
2022/12/10 04:44:31;;;;;;;54.72;19.60;;;;;;;;;;6321726;27;20040;-68
2022/12/10 04:47:32;;;;;;;51.75;17.98;;;;;;;;;;6316838;27;20465;-62
2022/12/10 04:50:33;;;;;;;57.88;19.45;;;;;;;;;;6319641;28;20108;-63
2022/12/10 04:53:33;;;;;;;62.15;21.05;;;;;;;;;;6316336;28;20070;-62
2022/12/10 04:56:35;;;;;;;56.47;21.15;;;;;;;;;;6319545;27;20039;-62
2022/12/10 04:59:36;;;;;;;54.30;19.80;;;;;;;;;;6317820;28;20585;-62
2022/12/10 05:02:36;;;;;;;56.72;20.48;;;;;;;;;;6320497;28;20093;-62
2022/12/10 05:05:37;;;;;;;58.70;21.02;;;;;;;;;;6320507;27;20079;-62
2022/12/10 05:08:39;;;;;;;55.83;18.80;;;;;;;;;;6321329;27;20492;-62
2022/12/10 05:11:40;;;;;;;53.22;19.67;;;;;;;;;;6319873;28;20047;-62
2022/12/10 05:14:40;;;;;;;53.92;18.40;;;;;;;;;;6321599;27;20051;-62
2022/12/10 05:17:41;;;;;;;48.40;18.75;;;;;;;;;;6320605;28;20058;-65
2022/12/10 05:20:42;;;;;;;105.57;29.60;;;;;;;;;;6320860;28;20051;-62
2022/12/10 05:23:48;;;;;;;101.50;30.83;;;;;;;;;;6317459;28;20071;-62
2022/12/10 05:26:51;;;;;;;115.00;33.58;;;;;;;;;;6322722;28;20090;-68
2022/12/10 05:29:51;;;;;;;58.78;22.27;;;;;;;;;;6318168;28;21008;-67
2022/12/10 05:32:52;;;;;;;56.90;20.20;;;;;;;;;;6320415;28;20135;-62
2022/12/10 05:35:57;;;;;;;55.75;20.00;;;;;;;;;;6319981;28;20043;-62
2022/12/10 05:38:58;;;;;;;51.50;19.88;;;;;;;;;;6315328;28;20165;-67
2022/12/10 05:41:59;;;;;;;52.13;19.87;;;;;;;;;;6323206;28;20513;-62
2022/12/10 05:44:59;;;;;;;55.20;20.80;;;;;;;;;;6319271;28;20051;-63
2022/12/10 05:48:00;;;;;;;55.53;19.92;;;;;;;;;;6318531;28;20138;-64
2022/12/10 05:51:11;;;;;;;56.58;21.58;;;;;;;;;;6323494;28;20437;-63
2022/12/10 05:54:13;;;;;;;64.65;22.00;;;;;;;;;;6317260;28;20752;-63
2022/12/10 05:57:14;;;;;;;63.10;22.27;;;;;;;;;;6325040;28;20059;-62
2022/12/10 06:00:15;;;;;;;61.35;23.25;;;;;;;;;;6317425;28;20764;-66
2022/12/10 06:03:16;;;;;;;66.07;22.27;;;;;;;;;;6319764;28;20044;-62
2022/12/10 06:06:26;;;;;;;72.65;25.90;;;;;;;;;;6321646;28;20492;-62
2022/12/10 06:09:26;;;;;;;63.88;20.98;;;;;;;;;;6319605;28;20052;-63
2022/12/10 06:12:27;;;;;;;63.28;22.67;;;;;;;;;;6318880;28;20044;-62
2022/12/10 06:15:28;;;;;;;61.83;22.80;;;;;;;;;;6319780;28;20048;-62
2022/12/10 06:18:28;;;;;;;54.83;19.17;;;;;;;;;;6322315;27;20134;-62
2022/12/10 06:21:29;;;;;;;64.50;22.60;;;;;;;;;;6324238;27;20039;-62
2022/12/10 06:24:30;;;;;;;53.97;20.55;;;;;;;;;;6334194;27;20456;-62
2022/12/10 06:27:31;;;;;;;57.65;21.08;;;;;;;;;;6322033;27;20048;-62
2022/12/10 06:30:32;;;;;;;56.55;19.45;;;;;;;;;;6327620;27;20092;-63
2022/12/10 06:33:33;;;;;;;52.10;18.65;;;;;;;;;;6327760;28;20159;-62
2022/12/10 06:36:34;;;;;;;56.87;19.03;;;;;;;;;;6332552;27;20612;-62
2022/12/10 06:39:34;;;;;;;56.05;17.90;;;;;;;;;;6326640;27;20043;-66
2022/12/10 06:42:35;;;;;;;56.83;19.10;;;;;;;;;;6320512;27;20082;-63
2022/12/10 06:45:41;;;;;;;52.60;18.70;;;;;;;;;;6325281;27;20443;-63
2022/12/10 06:48:42;;;;;;;65.70;19.83;;;;;;;;;;6324329;27;20050;-67
2022/12/10 06:51:42;;;;;;;51.97;18.20;;;;;;;;;;6322110;27;20044;-66
2022/12/10 06:54:43;;;;;;;54.60;19.55;;;;;;;;;;6327251;27;20129;-63
2022/12/10 06:57:44;;;;;;;61.75;20.67;;;;;;;;;;6318765;27;20070;-64
2022/12/10 07:00:44;;;;;;;65.38;20.67;;;;;;;;;;6326766;27;20755;-64
2022/12/10 07:03:48;;;;;;;56.25;21.48;;;;;;;;;;6334663;27;20052;-63
2022/12/10 07:06:49;;;;;;;64.53;21.10;;;;;;;;;;6341053;27;20044;-67
2022/12/10 07:09:49;;;;;;;71.45;24.20;;;;;;;;;;6336539;27;20394;-67
2022/12/10 07:12:50;;;;;;;58.45;22.35;;;;;;;;;;6323592;27;20388;-62
2022/12/10 07:15:50;;;;;;;60.08;20.83;;;;;;;;;;6323916;27;20056;-63
2022/12/10 07:18:54;;;;;;;62.45;21.77;;;;;;;;;;6321865;27;20467;-63
2022/12/10 07:21:54;;;;;;;56.70;21.02;;;;;;;;;;6337614;27;20047;-63
2022/12/10 07:24:55;;;;;;;52.88;18.73;;;;;;;;;;6348139;27;20067;-64
2022/12/10 07:27:55;;;;;;;60.03;20.70;;;;;;;;;;6340224;27;20044;-67
2022/12/10 07:31:04;;;;;;;67.03;21.70;;;;;;;;;;6339174;27;20510;-62
2022/12/10 07:34:05;;;;;;;68.00;24.17;;;;;;;;;;6346244;27;20047;-63
2022/12/10 07:37:06;;;;;;;92.90;31.02;;;;;;;;;;6347599;27;20096;-63
2022/12/10 07:40:07;;;;;;;76.22;26.60;;;;;;;;;;6339384;27;20436;-62
2022/12/10 07:43:08;;;;;;;66.32;24.23;;;;;;;;;;6344561;27;20064;-62
2022/12/10 07:46:15;;;;;;;74.80;25.65;;;;;;;;;;6344548;27;20035;-62
2022/12/10 07:49:16;;;;;;;74.25;26.42;;;;;;;;;;6343028;27;20059;-62
2022/12/10 07:52:17;;;;;;;80.80;28.13;;;;;;;;;;6338683;27;20081;-62
2022/12/10 07:55:17;;;;;;;86.03;26.70;;;;;;;;;;6345626;27;20036;-62
2022/12/10 07:58:18;;;;;;;122.32;32.75;;;;;;;;;;6344558;27;20054;-62
2022/12/10 08:01:22;;;;;;;123.05;32.00;;;;;;;;;;6347723;27;20521;-64
2022/12/10 08:04:23;;;;;;;126.97;33.45;;;;;;;;;;6325769;27;20054;-61
2022/12/10 08:07:23;;;;;;;119.40;32.55;;;;;;;;;;6329910;27;20044;-61
2022/12/10 08:10:24;;;;;;;93.22;28.20;;;;;;;;;;6332647;27;20054;-63
2022/12/10 08:13:24;;;;;;;98.28;28.52;;;;;;;;;;6348386;27;20055;-66
2022/12/10 08:16:28;;;;;;;82.60;26.00;;;;;;;;;;6326226;27;20105;-74
2022/12/10 08:19:28;;;;;;;73.97;25.73;;;;;;;;;;6361481;27;20047;-65
2022/12/10 08:22:29;;;;;;;60.53;22.25;;;;;;;;;;6347715;27;20062;-72
2022/12/10 08:25:30;;;;;;;79.68;28.80;;;;;;;;;;6334389;27;20051;-61
2022/12/10 08:28:30;;;;;;;93.43;31.00;;;;;;;;;;6324891;27;20052;-63
2022/12/10 08:31:31;;;;;;;72.55;25.05;;;;;;;;;;6361392;27;20397;-63
2022/12/10 08:34:31;;;;;;;93.75;31.52;;;;;;;;;;6339968;27;20058;-63
2022/12/10 08:37:32;;;;;;;69.03;24.15;;;;;;;;;;6336592;27;20051;-63
2022/12/10 08:40:33;;;;;;;73.75;25.58;;;;;;;;;;6343299;27;20393;-62
2022/12/10 08:43:34;;;;;;;57.85;20.63;;;;;;;;;;6340034;27;20071;-65
2022/12/10 08:46:34;;;;;;;73.72;24.80;;;;;;;;;;6347268;27;20061;-69
2022/12/10 08:50:45;;;;;;;73.50;27.40;;;;;;;;;;6307593;27;20903;-65
2022/12/10 08:53:46;;;;;;;65.75;25.38;;;;;;;;;;6301773;28;20045;-60
2022/12/10 08:56:47;;;;;;;80.28;28.63;;;;;;;;;;6295470;28;20487;-67
2022/12/10 08:59:47;;;;;;;86.45;31.67;;;;;;;;;;6289643;28;20474;-61
2022/12/10 09:02:48;;;;;;;74.43;28.98;;;;;;;;;;6288682;28;20052;-61
2022/12/10 09:05:49;;;;;;;81.90;29.23;;;;;;;;;;6295698;28;21434;-64
2022/12/10 09:08:50;;;;;;;73.40;28.38;;;;;;;;;;6294683;28;20125;-69
2022/12/10 09:11:50;;;;;;;72.35;27.10;;;;;;;;;;6294771;28;20067;-64
2022/12/10 09:14:51;;;;;;;76.80;27.67;;;;;;;;;;6293246;28;20066;-60
2022/12/10 09:17:52;;;;;;;72.53;26.40;;;;;;;;;;6291116;28;20819;-64
2022/12/10 09:20:52;;;;;;;67.90;26.50;;;;;;;;;;6290894;28;20491;-62
2022/12/10 09:23:53;;;;;;;74.97;25.23;;;;;;;;;;6289732;28;20437;-63
2022/12/10 09:26:54;;;;;;;80.30;27.80;;;;;;;;;;6292401;28;20047;-64
2022/12/10 09:29:54;;;;;;;71.55;25.10;;;;;;;;;;6299392;28;20094;-62
2022/12/10 09:32:55;;;;;;;102.25;34.30;;;;;;;;;;6288813;28;20063;-63
2022/12/10 09:35:56;;;;;;;83.60;29.45;;;;;;;;;;6288993;28;20056;-63
2022/12/10 09:38:57;;;;;;;78.80;30.35;;;;;;;;;;6290710;28;20095;-61
2022/12/10 09:42:41;;;;;;;84.15;30.58;;;;;;;;;;6296955;28;20495;-68
2022/12/10 09:45:52;;;;;;;81.97;29.40;;;;;;;;;;6280887;28;20056;-61
2022/12/10 09:49:13;;;;;;;85.53;32.60;;;;;;;;;;6285278;28;20407;-61
2022/12/10 09:52:17;;;;;;;87.20;30.55;;;;;;;;;;6286374;28;20396;-62
2022/12/10 09:55:24;;;;;;;89.13;29.10;;;;;;;;;;6293249;28;20045;-64
2022/12/10 09:58:26;;;;;;;85.53;27.42;;;;;;;;;;6287413;28;20095;-62
2022/12/10 10:01:29;;;;;;;78.93;26.90;;;;;;;;;;6274157;28;20045;-62
2022/12/10 10:04:30;;;;;;;81.25;26.80;;;;;;;;;;6281273;28;20488;-63
2022/12/10 10:07:32;;;;;;;79.57;26.73;;;;;;;;;;6271230;28;20106;-61
2022/12/10 10:10:36;;;;;;;79.13;25.08;;;;;;;;;;6283668;28;20136;-61
2022/12/10 10:13:45;;;;;;;83.90;27.08;;;;;;;;;;6269420;28;20041;-70
2022/12/10 10:16:50;;;;;;;89.57;29.67;;;;;;;;;;6267175;28;20041;-67
2022/12/10 10:19:51;;;;;;;91.10;31.73;;;;;;;;;;6269731;28;20121;-69
2022/12/10 10:22:55;;;;;;;98.15;33.85;;;;;;;;;;6259342;28;20045;-68
2022/12/10 10:25:56;;;;;;;88.90;31.77;;;;;;;;;;6257781;28;20048;-70
2022/12/10 10:29:05;;;;;;;98.30;35.50;;;;;;;;;;6251498;28;20049;-63
2022/12/10 10:32:19;;;;;;;100.65;34.78;;;;;;;;;;6249512;28;20047;-63
2022/12/10 10:35:33;;;;;;;95.93;32.40;;;;;;;;;;6243271;28;20495;-63
2022/12/10 10:38:34;;;;;;;103.07;31.98;;;;;;;;;;6249558;28;20053;-63
2022/12/10 10:41:40;;;;;;;94.93;30.38;;;;;;;;;;6250415;28;20096;-63
2022/12/10 10:44:42;;;;;;;108.57;31.85;;;;;;;;;;6247561;28;20045;-68
2022/12/10 10:47:42;;;;;;;99.37;31.30;;;;;;;;;;6253934;28;20045;-64
2022/12/10 10:50:52;;;;;;;91.43;30.40;;;;;;;;;;6248740;28;20430;-68
2022/12/10 10:53:55;;;;;;;91.95;27.75;;;;;;;;;;6248752;28;20135;-63
2022/12/10 10:56:56;;;;;;;91.80;29.38;;;;;;;;;;6247744;28;20061;-63
2022/12/10 11:00:24;;;;;;;84.00;27.17;;;;;;;;;;6248367;28;20043;-62
2022/12/10 11:03:27;;;;;;;86.78;28.48;;;;;;;;;;6249631;28;20053;-63
2022/12/10 11:06:28;;;;;;;94.60;28.50;;;;;;;;;;6249422;28;20055;-69
2022/12/10 11:09:32;;;;;;;100.65;31.17;;;;;;;;;;6247228;28;20141;-63
2022/12/10 11:12:33;;;;;;;108.90;33.25;;;;;;;;;;6248466;28;20083;-64
2022/12/10 11:15:39;;;;;;;110.05;31.52;;;;;;;;;;6255748;28;20132;-62
2022/12/10 11:18:43;;;;;;;107.30;30.85;;;;;;;;;;6246008;28;20416;-66
2022/12/10 11:21:44;;;;;;;103.45;30.40;;;;;;;;;;6249507;28;20160;-67
2022/12/10 11:24:47;;;;;;;105.45;30.95;;;;;;;;;;6251415;28;20053;-64
2022/12/10 11:28:07;;;;;;;119.03;35.53;;;;;;;;;;6247696;28;20856;-63
2022/12/10 11:31:33;;;;;;;105.38;33.97;;;;;;;;;;6244500;28;20041;-63
2022/12/10 11:34:51;;;;;;;109.55;32.33;;;;;;;;;;6248077;28;20131;-63
2022/12/10 11:38:01;;;;;;;104.45;33.38;;;;;;;;;;6255219;28;20045;-66
2022/12/10 11:41:12;;;;;;;107.85;32.95;;;;;;;;;;6263702;28;20068;-65
2022/12/10 11:44:23;;;;;;;99.20;30.27;;;;;;;;;;6263173;28;20098;-63
2022/12/10 11:47:38;;;;;;;121.80;33.97;;;;;;;;;;6252205;28;20040;-65
2022/12/10 11:51:21;;;;;;;101.05;27.10;;;;;;;;;;6249694;28;20149;-64
2022/12/10 11:55:01;;;;;;;97.53;28.92;;;;;;;;;;6242515;28;20057;-68
2022/12/10 11:58:14;;;;;;;120.55;31.48;;;;;;;;;;6223012;28;20824;-64
2022/12/10 12:01:21;;;;;;;104.05;31.83;;;;;;;;;;6248981;28;20037;-67
2022/12/10 12:04:46;;;;;;;196.20;51.72;;;;;;;;;;6247201;28;20136;-63
2022/12/10 12:08:28;;;;;;;124.53;36.80;;;;;;;;;;6253390;28;20080;-63
2022/12/10 12:11:54;;;;;;;154.15;42.00;;;;;;;;;;6221729;28;20053;-63
2022/12/10 12:14:59;;;;;;;194.55;49.72;;;;;;;;;;6245709;28;20045;-64
2022/12/10 12:18:25;;;;;;;159.23;41.75;;;;;;;;;;6246046;28;20045;-62
2022/12/10 12:21:28;;;;;;;177.75;43.63;;;;;;;;;;6249759;28;20049;-64
2022/12/10 12:24:38;;;;;;;137.23;39.70;;;;;;;;;;6247107;28;20064;-64
2022/12/10 12:27:48;;;;;;;132.88;37.55;;;;;;;;;;6248632;28;20036;-64
2022/12/10 12:30:58;;;;;;;159.38;45.10;;;;;;;;;;6257783;28;20055;-67
2022/12/10 12:34:11;;;;;;;123.25;35.40;;;;;;;;;;6246669;28;20060;-63
2022/12/10 12:37:15;;;;;;;145.13;38.42;;;;;;;;;;6246479;28;20056;-63
2022/12/10 12:40:41;;;;;;;123.32;36.22;;;;;;;;;;6248866;28;20053;-64
2022/12/10 12:43:58;;;;;;;137.27;33.72;;;;;;;;;;6252611;28;20056;-62
2022/12/10 12:47:21;;;;;;;134.93;37.45;;;;;;;;;;6252427;28;20427;-63
2022/12/10 12:51:01;;;;;;;130.65;32.97;;;;;;;;;;6271055;28;20079;-63
2022/12/10 12:54:02;;;;;;;121.57;31.17;;;;;;;;;;6252220;28;20460;-63
2022/12/10 12:57:30;;;;;;;104.28;29.40;;;;;;;;;;6248135;28;20049;-63
2022/12/10 13:00:35;;;;;;;128.80;33.50;;;;;;;;;;6246182;28;20054;-63
2022/12/10 13:03:40;;;;;;;121.10;33.88;;;;;;;;;;6257510;28;20182;-63
2022/12/10 13:06:44;;;;;;;128.13;34.63;;;;;;;;;;6262301;28;20782;-66
2022/12/10 13:09:44;;;;;;;136.57;34.35;;;;;;;;;;6266538;28;20098;-67
2022/12/10 13:13:24;;;;;;;124.35;35.78;;;;;;;;;;6259993;28;20041;-66
2022/12/10 13:16:48;;;;;;;126.50;33.97;;;;;;;;;;6256148;28;20049;-69
2022/12/10 13:19:51;;;;;;;130.18;34.05;;;;;;;;;;6255459;28;20110;-66
2022/12/10 13:23:02;;;;;;;122.40;35.83;;;;;;;;;;6264247;28;20099;-63
2022/12/10 13:26:03;;;;;;;116.55;31.95;;;;;;;;;;6261133;28;20041;-65
2022/12/10 13:29:24;;;;;;;130.95;34.17;;;;;;;;;;6243818;28;20060;-67
2022/12/10 13:32:31;;;;;;;127.13;35.33;;;;;;;;;;6238552;28;20450;-65
2022/12/10 13:35:43;;;;;;;133.95;37.90;;;;;;;;;;6247432;28;20052;-71
2022/12/10 13:39:11;;;;;;;129.18;36.50;;;;;;;;;;6247410;28;20916;-65
2022/12/10 13:45:34;;;;;;;124.15;35.22;;;;;;;;;;6245323;28;20054;-65
2022/12/10 13:48:37;;;;;;;120.80;37.85;;;;;;;;;;6258612;28;20087;-73
2022/12/10 13:52:04;;;;;;;152.27;39.90;;;;;;;;;;6266744;28;20043;-65
2022/12/10 13:55:15;;;;;;;132.77;38.30;;;;;;;;;;6267578;28;20052;-73
2022/12/10 13:58:46;;;;;;;145.70;41.50;;;;;;;;;;6266049;28;20071;-65
2022/12/10 14:01:50;;;;;;;136.55;38.30;;;;;;;;;;6268803;28;20365;-70
2022/12/10 14:05:20;;;;;;;134.48;37.15;;;;;;;;;;6270415;28;20055;-77
2022/12/10 14:08:26;;;;;;;124.15;34.50;;;;;;;;;;6262804;28;20041;-65
2022/12/10 14:11:35;;;;;;;127.78;34.67;;;;;;;;;;6269288;28;20608;-65
2022/12/10 14:14:40;;;;;;;132.63;36.78;;;;;;;;;;6264814;28;20041;-73
2022/12/10 14:17:43;;;;;;;136.80;38.78;;;;;;;;;;6263036;28;20483;-64
2022/12/10 14:20:46;;;;;;;127.10;38.47;;;;;;;;;;6268641;28;20045;-64
2022/12/10 14:23:48;;;;;;;126.57;39.33;;;;;;;;;;6262348;28;20041;-64
2022/12/10 14:26:58;;;;;;;135.30;37.03;;;;;;;;;;6265948;28;20159;-63
2022/12/10 14:30:26;;;;;;;143.15;40.20;;;;;;;;;;6256042;28;20419;-77
2022/12/10 14:33:27;;;;;;;171.95;46.00;;;;;;;;;;6262374;28;20049;-65
2022/12/10 14:36:32;;;;;;;166.18;43.05;;;;;;;;;;6262657;28;20070;-74
2022/12/10 14:39:33;;;;;;;164.32;44.33;;;;;;;;;;6263825;28;20119;-71
2022/12/10 14:42:39;;;;;;;135.70;38.42;;;;;;;;;;6268797;28;20064;-63
2022/12/10 14:45:55;;;;;;;130.88;38.45;;;;;;;;;;6256855;28;20049;-63
2022/12/10 14:48:56;;;;;;;127.70;38.60;;;;;;;;;;6251000;28;20146;-64
2022/12/10 14:51:57;;;;;;;138.32;38.33;;;;;;;;;;6245268;28;20200;-68
2022/12/10 14:54:58;;;;;;;153.52;45.92;;;;;;;;;;6248165;28;20061;-75
2022/12/10 14:58:04;;;;;;;140.52;39.75;;;;;;;;;;6248644;28;20056;-73
2022/12/10 15:01:06;;;;;;;126.22;36.50;;;;;;;;;;6248128;28;20074;-67
2022/12/10 15:04:13;;;;;;;122.13;36.70;;;;;;;;;;6247217;28;20068;-65
2022/12/10 15:07:19;;;;;;;130.75;36.63;;;;;;;;;;6246545;28;20051;-69
2022/12/10 15:10:43;;;;;;;105.85;32.50;;;;;;;;;;6248797;28;20518;-70
2022/12/10 15:13:58;;;;;;;115.82;32.38;;;;;;;;;;6245664;28;20045;-68
2022/12/10 15:16:59;;;;;;;116.70;33.90;;;;;;;;;;6242181;28;20045;-65
2022/12/10 15:20:00;;;;;;;129.35;35.40;;;;;;;;;;6249432;28;20855;-70
2022/12/10 15:23:27;;;;;;;130.90;37.58;;;;;;;;;;6245547;28;20138;-72
2022/12/10 15:26:32;;;;;;;144.02;41.63;;;;;;;;;;6245341;28;20557;-63
2022/12/10 15:29:34;;;;;;;126.15;33.53;;;;;;;;;;6244956;28;20056;-68
2022/12/10 15:32:35;;;;;;;124.07;34.55;;;;;;;;;;6246233;28;20411;-67
2022/12/10 15:35:36;;;;;;;106.68;31.42;;;;;;;;;;6245967;28;20533;-73
2022/12/10 15:38:37;;;;;;;130.23;34.58;;;;;;;;;;6244068;28;20053;-65
2022/12/10 15:41:48;;;;;;;138.30;36.22;;;;;;;;;;6247277;28;20056;-64
2022/12/10 15:44:56;;;;;;;139.32;39.33;;;;;;;;;;6245360;28;20053;-63
2022/12/10 15:47:58;;;;;;;154.35;42.03;;;;;;;;;;6246717;28;20768;-63
2022/12/10 15:50:59;;;;;;;146.00;40.95;;;;;;;;;;6242450;28;20164;-66
2022/12/10 15:54:00;;;;;;;145.02;40.17;;;;;;;;;;6245428;28;20049;-71
2022/12/10 15:57:25;;;;;;;159.20;42.88;;;;;;;;;;6243279;28;20061;-63
2022/12/10 16:00:27;;;;;;;136.50;36.75;;;;;;;;;;6244957;28;21113;-79
2022/12/10 16:03:28;;;;;;;;;;;;;;;;;;6246233;28;20053;-64
2022/12/10 16:06:28;;;;;;;136.02;36.17;;;;;;;;;;6244252;28;20420;-63
2022/12/10 16:09:29;;;;;;;130.25;35.33;;;;;;;;;;6242804;28;20049;-72
2022/12/10 16:12:32;;;;;;;151.85;41.78;;;;;;;;;;6243132;28;20055;-64
2022/12/10 16:15:39;;;;;;;141.43;37.67;;;;;;;;;;6241274;28;20086;-75
2022/12/10 16:18:39;;;;;;;164.05;41.63;;;;;;;;;;6245339;28;20186;-64
2022/12/10 16:21:40;;;;;;;154.90;45.22;;;;;;;;;;6244576;28;20056;-63
2022/12/10 16:24:42;;;;;;;158.15;41.45;;;;;;;;;;6243834;28;20546;-63
2022/12/10 16:27:43;;;;;;;132.48;36.05;;;;;;;;;;6246397;28;20055;-63
2022/12/10 16:30:48;;;;;;;147.63;39.25;;;;;;;;;;6245744;28;20053;-64
2022/12/10 16:33:52;;;;;;;151.73;40.17;;;;;;;;;;6246720;28;20124;-67
2022/12/10 16:36:53;;;;;;;162.05;43.35;;;;;;;;;;6246605;28;20060;-65
2022/12/10 16:39:54;;;;;;;145.85;39.47;;;;;;;;;;6244345;28;20051;-63
2022/12/10 16:42:55;;;;;;;141.43;38.10;;;;;;;;;;6244767;28;20239;-72
2022/12/10 16:45:56;;;;;;;149.98;39.58;;;;;;;;;;6244083;28;20049;-77
2022/12/10 16:48:57;;;;;;;155.82;40.88;;;;;;;;;;6245927;28;20122;-65
2022/12/10 16:51:58;;;;;;;144.40;41.17;;;;;;;;;;6241420;28;20044;-77
2022/12/10 16:54:58;;;;;;;138.73;39.63;;;;;;;;;;6243740;28;21563;-75
2022/12/10 16:57:59;;;;;;;131.05;35.70;;;;;;;;;;6244259;28;20266;-79
2022/12/10 17:01:00;;;;;;;107.80;31.55;;;;;;;;;;6242167;28;20797;-66
2022/12/10 17:04:03;;;;;;;116.10;34.63;;;;;;;;;;6245757;28;20089;-79
2022/12/10 17:07:03;;;;;;;119.90;36.13;;;;;;;;;;6244422;28;20496;-75
2022/12/10 17:10:06;;;;;;;121.07;35.38;;;;;;;;;;6246222;28;20037;-81
2022/12/10 17:13:10;;;;;;;119.35;36.03;;;;;;;;;;6249128;28;20053;-73
2022/12/10 17:16:21;;;;;;;122.82;37.92;;;;;;;;;;6249861;28;20059;-79
2022/12/10 17:19:22;;;;;;;126.25;39.42;;;;;;;;;;6253613;28;20049;-75
2022/12/10 17:22:23;;;;;;;142.98;39.60;;;;;;;;;;6247808;28;20068;-69
2022/12/10 17:25:24;;;;;;;131.35;40.10;;;;;;;;;;6246975;28;20494;-71
2022/12/10 17:28:25;;;;;;;128.52;37.60;;;;;;;;;;6245725;28;20053;-76
2022/12/10 17:31:26;;;;;;;128.27;36.47;;;;;;;;;;6247595;28;20055;-76
2022/12/10 17:34:29;;;;;;;123.65;39.35;;;;;;;;;;6249566;28;20302;-78
2022/12/10 17:37:32;;;;;;;127.05;38.13;;;;;;;;;;6246846;28;20045;-69
2022/12/10 17:40:33;;;;;;;117.35;38.35;;;;;;;;;;6249474;28;20099;-79
2022/12/10 17:43:34;;;;;;;116.13;32.83;;;;;;;;;;6250262;28;20044;-70
2022/12/10 17:46:35;;;;;;;105.88;32.63;;;;;;;;;;6247557;28;20096;-74
2022/12/10 17:49:36;;;;;;;111.40;31.33;;;;;;;;;;6247579;28;20049;-76
2022/12/10 17:52:37;;;;;;;96.97;29.75;;;;;;;;;;6247316;28;20541;-74
2022/12/10 17:55:37;;;;;;;92.10;28.48;;;;;;;;;;6247888;28;20080;-75
2022/12/10 17:58:39;;;;;;;98.50;29.55;;;;;;;;;;6249744;28;20106;-69
2022/12/10 18:01:39;;;;;;;91.47;29.52;;;;;;;;;;6248616;28;20056;-77
2022/12/10 18:04:40;;;;;;;99.35;29.45;;;;;;;;;;6249953;28;20457;-72
2022/12/10 18:07:41;;;;;;;97.43;28.70;;;;;;;;;;6249491;28;20113;-69